createdAt,value
2023-04-26T00:00:17.678Z,1.50
2023-04-26T00:03:21.780Z,2.47
2023-04-26T00:06:25.015Z,1.40
2023-04-26T00:09:29.481Z,1.77
2023-04-26T00:12:35.219Z,1.70
2023-04-26T00:15:38.597Z,1.50
2023-04-26T00:18:41.728Z,1.30
2023-04-26T00:21:44.941Z,1.70
2023-04-26T00:24:49.423Z,2.47
2023-04-26T00:27:53.675Z,1.70
2023-04-26T00:30:58.022Z,1.90
2023-04-26T00:34:01.217Z,1.70
2023-04-26T00:37:05.153Z,1.50
2023-04-26T00:40:11.173Z,1.87
2023-04-26T00:43:14.301Z,1.90
2023-04-26T00:46:17.530Z,1.63
2023-04-26T00:49:24.389Z,1.87
2023-04-26T00:52:28.497Z,1.60
2023-04-26T00:55:33.045Z,1.60
2023-04-26T00:58:36.231Z,1.90
2023-04-26T01:01:40.775Z,1.70
2023-04-26T01:04:45.377Z,1.80
2023-04-26T01:07:49.153Z,1.73
2023-04-26T01:10:54.213Z,2.00
2023-04-26T01:13:58.520Z,1.70
2023-04-26T01:17:01.864Z,1.90
2023-04-26T01:20:05.927Z,1.90
2023-04-26T01:23:10.505Z,1.90
2023-04-26T01:26:13.662Z,1.80
2023-04-26T01:29:18.045Z,2.13
2023-04-26T01:32:21.110Z,1.80
2023-04-26T01:35:24.218Z,1.50
2023-04-26T01:38:28.706Z,1.70
2023-04-26T01:41:32.839Z,2.07
2023-04-26T01:44:35.923Z,1.80
2023-04-26T01:47:39.287Z,1.90
2023-04-26T01:50:42.429Z,1.40
2023-04-26T01:53:46.943Z,1.77
2023-04-26T01:56:50.024Z,1.40
2023-04-26T01:59:54.275Z,1.60
2023-04-26T02:02:58.023Z,1.40
2023-04-26T02:06:01.147Z,1.60
2023-04-26T02:09:05.978Z,1.70
2023-04-26T02:12:09.106Z,1.77
2023-04-26T02:15:12.865Z,1.80
2023-04-26T02:18:16.067Z,1.17
2023-04-26T02:21:19.505Z,1.30
2023-04-26T02:24:24.186Z,1.20
2023-04-26T02:27:27.848Z,1.23
2023-04-26T02:30:31.594Z,1.13
2023-04-26T02:33:34.762Z,1.33
2023-04-26T02:36:37.935Z,1.30
2023-04-26T02:39:42.413Z,1.27
2023-04-26T02:42:45.639Z,1.27
2023-04-26T02:45:48.705Z,1.37
2023-04-26T02:48:52.028Z,1.70
2023-04-26T02:51:55.286Z,1.47
2023-04-26T02:55:01.082Z,1.50
2023-04-26T02:58:04.196Z,1.37
2023-04-26T03:01:07.302Z,1.20
2023-04-26T03:04:10.806Z,1.23
2023-04-26T03:07:14.014Z,1.70
2023-04-26T03:10:18.671Z,1.43
2023-04-26T03:13:24.382Z,1.70
2023-04-26T03:16:29.396Z,1.77
2023-04-26T03:19:32.877Z,1.73
2023-04-26T03:22:35.999Z,1.90
2023-04-26T03:25:43.255Z,1.67
2023-04-26T03:28:46.383Z,1.70
2023-04-26T03:31:49.579Z,1.50
2023-04-26T03:34:52.746Z,2.03
2023-04-26T03:37:58.454Z,1.40
2023-04-26T03:41:03.179Z,1.87
2023-04-26T03:44:06.520Z,1.70
2023-04-26T03:47:09.624Z,1.50
2023-04-26T03:50:12.945Z,1.53
2023-04-26T03:53:16.056Z,1.30
2023-04-26T03:56:20.513Z,1.40
2023-04-26T03:59:23.562Z,1.73
2023-04-26T04:02:26.762Z,1.67
2023-04-26T04:05:30.043Z,1.50
2023-04-26T04:08:33.911Z,1.50
2023-04-26T04:11:38.391Z,1.53
2023-04-26T04:14:41.621Z,1.90
2023-04-26T04:17:44.774Z,1.90
2023-04-26T04:20:47.938Z,1.90
2023-04-26T04:23:51.276Z,2.00
2023-04-26T04:26:56.127Z,1.80
2023-04-26T04:29:59.241Z,1.83
2023-04-26T04:33:02.930Z,2.00
2023-04-26T04:36:06.759Z,2.20
2023-04-26T04:39:16.247Z,2.40
2023-04-26T04:42:21.585Z,2.30
2023-04-26T04:45:24.883Z,1.80
2023-04-26T04:48:28.017Z,1.60
2023-04-26T04:51:31.090Z,1.70
2023-04-26T04:54:34.591Z,1.50
2023-04-26T04:57:40.670Z,2.70
2023-04-26T05:00:46.991Z,2.33
2023-04-26T05:03:50.313Z,2.57
2023-04-26T05:06:53.611Z,2.20
2023-04-26T05:09:56.837Z,2.40
2023-04-26T05:13:01.291Z,1.90
2023-04-26T05:16:04.516Z,1.83
2023-04-26T05:19:09.504Z,1.90
2023-04-26T05:22:13.208Z,2.10
2023-04-26T05:25:17.276Z,1.90
2023-04-26T05:28:22.053Z,2.10
2023-04-26T05:31:25.219Z,1.97
2023-04-26T05:34:28.301Z,1.77
2023-04-26T05:37:31.745Z,2.47
2023-04-26T05:40:34.896Z,2.13
2023-04-26T05:43:40.427Z,1.80
2023-04-26T05:46:43.561Z,2.43
2023-04-26T05:49:46.660Z,2.40
2023-04-26T05:52:49.837Z,2.20
2023-04-26T05:55:52.932Z,2.93
2023-04-26T05:58:57.457Z,2.27
2023-04-26T06:02:00.603Z,2.73
2023-04-26T06:05:05.238Z,2.47
2023-04-26T06:08:08.784Z,3.20
2023-04-26T06:11:11.980Z,2.80
2023-04-26T06:14:29.232Z,2.67
2023-04-26T06:17:34.050Z,2.60
2023-04-26T06:20:37.309Z,2.60
2023-04-26T06:23:40.533Z,2.43
2023-04-26T06:26:43.731Z,2.27
2023-04-26T06:29:48.458Z,2.40
2023-04-26T06:32:51.638Z,2.87
2023-04-26T06:35:54.789Z,2.37
2023-04-26T06:38:57.925Z,2.50
2023-04-26T06:42:01.016Z,2.67
2023-04-26T06:45:06.694Z,2.80
2023-04-26T06:48:09.849Z,2.93
2023-04-26T06:51:13.092Z,3.10
2023-04-26T06:54:16.369Z,3.03
2023-04-26T06:57:19.463Z,3.20
2023-04-26T07:00:24.354Z,2.80
2023-04-26T07:03:27.611Z,2.03
2023-04-26T07:06:31.270Z,2.77
2023-04-26T07:09:34.641Z,1.90
2023-04-26T07:12:37.846Z,2.80
2023-04-26T07:15:42.399Z,2.00
2023-04-26T07:18:45.627Z,1.90
2023-04-26T07:21:48.714Z,1.97
2023-04-26T07:24:51.834Z,1.63
2023-04-26T07:27:54.930Z,2.47
2023-04-26T07:30:59.653Z,1.87
2023-04-26T07:34:02.803Z,2.07
2023-04-26T07:37:05.912Z,2.47
2023-04-26T07:40:10.629Z,2.47
2023-04-26T07:43:15.497Z,2.00
2023-04-26T07:46:20.015Z,2.37
2023-04-26T07:49:23.141Z,2.60
2023-04-26T07:52:26.269Z,2.23
2023-04-26T07:55:29.582Z,1.80
2023-04-26T07:58:33.060Z,1.60
2023-04-26T08:01:37.811Z,1.80
2023-04-26T08:04:48.630Z,1.90
2023-04-26T08:07:52.065Z,1.97
2023-04-26T08:10:55.735Z,2.07
2023-04-26T08:13:58.803Z,2.17
2023-04-26T08:17:03.754Z,1.87
2023-04-26T08:20:09.714Z,2.00
2023-04-26T08:23:13.015Z,2.23
2023-04-26T08:26:16.164Z,2.13
2023-04-26T08:29:19.280Z,1.57
2023-04-26T08:32:23.857Z,1.70
2023-04-26T08:35:27.217Z,1.33
2023-04-26T08:38:30.896Z,1.67
2023-04-26T08:41:38.133Z,1.90
2023-04-26T08:44:43.773Z,1.63
2023-04-26T08:47:50.359Z,1.50
2023-04-26T08:50:55.057Z,1.30
2023-04-26T08:54:02.124Z,1.37
2023-04-26T08:57:07.665Z,1.23
2023-04-26T09:00:13.634Z,1.40
2023-04-26T09:03:18.406Z,1.13
2023-04-26T09:06:22.082Z,1.60
2023-04-26T09:09:29.433Z,1.60
2023-04-26T09:12:32.932Z,1.50
2023-04-26T09:15:36.465Z,1.90
2023-04-26T09:18:52.595Z,1.73
2023-04-26T09:21:56.665Z,2.07
2023-04-26T09:25:00.073Z,1.60
2023-04-26T09:28:04.265Z,2.30
2023-04-26T09:31:07.448Z,1.43
2023-04-26T09:34:13.010Z,1.30
2023-04-26T09:37:16.795Z,1.80
2023-04-26T09:40:20.577Z,1.50
2023-04-26T09:43:24.518Z,1.40
2023-04-26T09:46:27.697Z,1.00
2023-04-26T09:49:33.584Z,1.10
2023-04-26T09:52:44.578Z,1.10
2023-04-26T09:55:49.663Z,1.30
2023-04-26T09:59:00.875Z,0.83
2023-04-26T10:02:04.966Z,0.50
2023-04-26T10:05:10.168Z,0.80
2023-04-26T10:08:15.326Z,0.80
2023-04-26T10:11:19.198Z,0.80
2023-04-26T10:14:22.451Z,0.67
2023-04-26T10:17:25.633Z,0.87
2023-04-26T10:20:30.802Z,0.70
2023-04-26T10:23:34.763Z,0.70
2023-04-26T10:26:52.118Z,0.80
2023-04-26T10:30:12.635Z,0.60
2023-04-26T10:33:16.651Z,0.70
2023-04-26T10:36:24.332Z,1.00
2023-04-26T10:39:28.244Z,0.70
2023-04-26T10:42:32.430Z,0.70
2023-04-26T10:45:36.140Z,0.60
2023-04-26T10:48:39.369Z,1.40
2023-04-26T10:52:11.618Z,0.63
2023-04-26T10:55:41.827Z,0.90
2023-04-26T10:58:47.772Z,0.80
2023-04-26T11:01:51.104Z,0.60
2023-04-26T11:04:54.860Z,0.83
2023-04-26T11:08:07.136Z,0.90
2023-04-26T11:11:13.779Z,0.60
2023-04-26T11:14:18.840Z,0.97
2023-04-26T11:17:21.998Z,0.50
2023-04-26T11:20:31.456Z,0.80
2023-04-26T11:23:36.724Z,0.50
2023-04-26T11:26:39.951Z,1.80
2023-04-26T11:29:43.033Z,0.90
2023-04-26T11:32:47.509Z,0.60
2023-04-26T11:35:51.245Z,0.60
2023-04-26T11:38:55.770Z,0.50
2023-04-26T11:42:07.219Z,0.77
2023-04-26T11:45:11.535Z,1.00
2023-04-26T11:48:15.640Z,0.90
2023-04-26T11:51:19.141Z,0.83
2023-04-26T11:54:31.537Z,0.70
2023-04-26T11:57:35.584Z,1.00
2023-04-26T12:00:39.131Z,0.60
2023-04-26T12:03:42.387Z,0.60
2023-04-26T12:06:47.478Z,0.80
2023-04-26T12:09:51.947Z,0.87
2023-04-26T12:12:57.016Z,0.60
2023-04-26T12:16:00.446Z,1.20
2023-04-26T12:19:06.752Z,0.70
2023-04-26T12:22:10.808Z,1.33
2023-04-26T12:25:15.311Z,1.10
2023-04-26T12:28:18.556Z,0.87
2023-04-26T12:31:21.803Z,0.70
2023-04-26T12:34:25.843Z,0.60
2023-04-26T12:37:28.934Z,0.50
2023-04-26T12:40:33.490Z,0.80
2023-04-26T12:43:36.843Z,0.90
2023-04-26T12:46:40.207Z,0.77
2023-04-26T12:49:43.435Z,0.70
2023-04-26T12:52:46.876Z,0.70
2023-04-26T12:55:51.316Z,0.70
2023-04-26T12:58:54.538Z,0.90
2023-04-26T13:01:57.954Z,0.90
2023-04-26T13:05:13.061Z,0.90
2023-04-26T13:08:20.431Z,0.90
2023-04-26T13:11:32.807Z,0.83
2023-04-26T13:14:36.048Z,0.90
2023-04-26T13:17:39.803Z,1.30
2023-04-26T13:20:43.000Z,1.10
2023-04-26T13:23:46.866Z,1.00
2023-04-26T13:26:51.327Z,0.90
2023-04-26T13:29:54.837Z,2.13
2023-04-26T13:33:00.130Z,1.20
2023-04-26T13:36:03.676Z,1.30
2023-04-26T13:39:07.401Z,1.10
2023-04-26T13:42:11.898Z,0.87
2023-04-26T13:45:16.587Z,1.20
2023-04-26T13:48:21.127Z,0.93
2023-04-26T13:51:25.193Z,1.10
2023-04-26T13:54:28.710Z,0.97
2023-04-26T13:57:33.277Z,1.10
2023-04-26T14:00:36.399Z,0.90
2023-04-26T14:03:39.742Z,1.03
2023-04-26T14:06:42.948Z,0.70
2023-04-26T14:09:48.748Z,0.90
2023-04-26T14:12:53.606Z,0.83
2023-04-26T14:19:08.704Z,1.00
2023-04-26T14:22:13.002Z,1.30
2023-04-26T14:25:16.818Z,1.10
2023-04-26T14:28:21.587Z,1.03
2023-04-26T14:31:26.208Z,0.90
2023-04-26T14:34:29.461Z,1.13
2023-04-26T14:37:32.557Z,1.00
2023-04-26T14:40:37.056Z,1.20
2023-04-26T14:43:41.570Z,0.87
2023-04-26T14:46:44.778Z,1.20
2023-04-26T14:49:48.003Z,1.00
2023-04-26T14:52:51.346Z,1.30
2023-04-26T14:55:56.592Z,2.03
2023-04-26T14:59:02.155Z,1.70
2023-04-26T15:02:05.656Z,1.53
2023-04-26T15:05:10.601Z,1.17
2023-04-26T15:08:13.780Z,1.13
2023-04-26T15:11:17.026Z,1.00
2023-04-26T15:14:21.553Z,1.00
2023-04-26T15:17:24.762Z,1.30
2023-04-26T15:20:27.897Z,1.07
2023-04-26T15:23:31.103Z,1.20
2023-04-26T15:26:34.261Z,0.83
2023-04-26T15:29:38.728Z,0.90
2023-04-26T15:32:42.195Z,0.90
2023-04-26T15:35:57.464Z,1.10
2023-04-26T15:39:09.692Z,1.20
2023-04-26T15:42:16.740Z,1.37
2023-04-26T15:45:26.850Z,1.10
2023-04-26T15:48:32.422Z,1.43
2023-04-26T15:51:39.329Z,1.10
2023-04-26T15:54:49.235Z,1.10
2023-04-26T15:57:54.469Z,1.30
2023-04-26T16:01:07.834Z,1.37
2023-04-26T16:04:17.752Z,1.40
2023-04-26T16:07:24.764Z,1.10
2023-04-26T16:10:31.785Z,1.13
2023-04-26T16:13:36.178Z,1.20
2023-04-26T16:16:51.168Z,1.30
2023-04-26T16:20:03.093Z,0.90
2023-04-26T16:23:07.943Z,1.13
2023-04-26T16:26:12.600Z,1.40
2023-04-26T16:29:22.056Z,1.30
2023-04-26T16:32:30.674Z,1.47
2023-04-26T16:35:36.350Z,1.43
2023-04-26T16:38:46.430Z,1.33
2023-04-26T16:41:51.256Z,1.20
2023-04-26T16:45:05.114Z,1.20
2023-04-26T16:48:11.054Z,1.30
2023-04-26T16:51:15.674Z,1.30
2023-04-26T16:54:29.264Z,1.40
2023-04-26T16:57:35.196Z,1.30
2023-04-26T17:00:40.836Z,1.30
2023-04-26T17:03:47.238Z,1.63
2023-04-26T17:06:58.325Z,1.63
2023-04-26T17:10:05.938Z,1.47
2023-04-26T17:13:22.503Z,1.73
2023-04-26T17:16:28.790Z,1.93
2023-04-26T17:19:43.167Z,2.50
2023-04-26T17:22:49.057Z,1.97
2023-04-26T17:25:55.327Z,1.90
2023-04-26T17:29:10.064Z,1.60
2023-04-26T17:32:15.435Z,2.53
2023-04-26T17:35:25.069Z,3.00
2023-04-26T17:38:38.409Z,2.60
2023-04-26T17:41:43.755Z,2.33
2023-04-26T17:44:47.787Z,3.10
2023-04-26T17:47:52.614Z,2.67
2023-04-26T17:51:00.850Z,2.60
2023-04-26T17:54:08.382Z,2.43
2023-04-26T17:57:18.836Z,3.10
2023-04-26T18:00:24.699Z,2.50
2023-04-26T18:03:33.926Z,2.43
2023-04-26T18:06:53.524Z,2.10
2023-04-26T18:13:19.561Z,2.07
2023-04-26T18:16:28.007Z,1.97
2023-04-26T18:19:32.508Z,2.20
2023-04-26T18:22:43.277Z,2.53
2023-04-26T18:25:50.620Z,2.23
2023-04-26T18:28:56.281Z,1.87
2023-04-26T18:32:04.887Z,1.90
2023-04-26T18:35:09.939Z,1.90
2023-04-26T18:38:19.647Z,2.40
2023-04-26T18:41:25.856Z,1.50
2023-04-26T18:44:34.240Z,2.00
2023-04-26T18:47:54.010Z,2.80
2023-04-26T18:51:07.388Z,2.47
2023-04-26T18:54:21.823Z,1.93
2023-04-26T18:57:29.162Z,2.10
2023-04-26T19:00:39.212Z,2.10
2023-04-26T19:03:45.291Z,3.17
2023-04-26T19:06:53.517Z,3.90
2023-04-26T19:10:09.061Z,4.87
2023-04-26T19:13:14.219Z,5.10
2023-04-26T19:19:47.579Z,3.40
2023-04-26T19:22:54.186Z,3.37
2023-04-26T19:26:06.560Z,4.03
2023-04-26T19:29:10.486Z,3.60
2023-04-26T19:32:15.788Z,3.80
2023-04-26T19:35:29.247Z,5.07
2023-04-26T19:38:32.889Z,4.60
2023-04-26T19:41:39.543Z,3.97
2023-04-26T19:44:43.654Z,3.43
2023-04-26T19:47:46.963Z,3.03
2023-04-26T19:50:51.607Z,3.90
2023-04-26T19:53:56.057Z,3.23
2023-04-26T19:57:04.040Z,4.07
2023-04-26T20:00:10.317Z,4.70
2023-04-26T20:03:13.465Z,4.07
2023-04-26T20:06:17.994Z,3.80
2023-04-26T20:09:22.729Z,3.63
2023-04-26T20:12:30.983Z,4.43
2023-04-26T20:15:35.755Z,3.43
2023-04-26T20:18:41.760Z,3.90
2023-04-26T20:21:48.189Z,4.20
2023-04-26T20:24:51.756Z,4.47
2023-04-26T20:27:58.352Z,3.67
2023-04-26T20:31:01.714Z,4.10
2023-04-26T20:34:06.221Z,3.30
2023-04-26T20:37:10.751Z,3.67
2023-04-26T20:40:14.642Z,3.30
2023-04-26T20:43:22.568Z,3.40
2023-04-26T20:46:25.834Z,3.60
2023-04-26T20:49:30.450Z,4.23
2023-04-26T20:55:54.497Z,3.40
2023-04-26T20:59:13.271Z,3.87
2023-04-26T21:02:18.081Z,3.43
2023-04-26T21:05:26.323Z,2.90
2023-04-26T21:08:31.808Z,3.80
2023-04-26T21:11:38.838Z,3.63
2023-04-26T21:14:46.374Z,4.07
2023-04-26T21:17:49.960Z,4.50
2023-04-26T21:21:10.133Z,4.30
2023-04-26T21:24:17.288Z,3.50
2023-04-26T21:27:28.981Z,3.50
2023-04-26T21:30:40.946Z,4.27
2023-04-26T21:33:54.706Z,4.03
2023-04-26T21:37:00.945Z,7.30
2023-04-26T21:40:06.628Z,5.87
2023-04-26T21:43:15.571Z,3.80
2023-04-26T21:46:34.272Z,3.70
2023-04-26T21:49:40.324Z,3.40
2023-04-26T21:52:46.350Z,3.60
2023-04-26T21:55:57.722Z,4.33
2023-04-26T21:59:03.247Z,4.50
2023-04-26T22:02:10.202Z,4.13
2023-04-26T22:05:26.281Z,4.70
2023-04-26T22:08:30.935Z,3.73
2023-04-26T22:11:35.570Z,3.80
2023-04-26T22:14:42.654Z,3.40
2023-04-26T22:17:56.820Z,4.13
2023-04-26T22:21:12.082Z,3.70
2023-04-26T22:24:16.726Z,4.23
2023-04-26T22:27:22.441Z,4.13
2023-04-26T22:30:27.106Z,4.67
2023-04-26T22:33:36.746Z,4.53
2023-04-26T22:36:43.008Z,3.83
2023-04-26T22:39:47.470Z,3.37
2023-04-26T22:43:04.354Z,3.30
2023-04-26T22:46:09.076Z,4.03
2023-04-26T22:49:25.722Z,4.00
2023-04-26T22:52:33.099Z,3.50
2023-04-26T22:55:39.236Z,4.37
2023-04-26T22:58:45.898Z,4.10
2023-04-26T23:05:20.315Z,3.80
2023-04-26T23:08:25.017Z,3.90
2023-04-26T23:11:41.823Z,3.40
2023-04-26T23:14:46.667Z,3.87
2023-04-26T23:17:57.559Z,3.50
2023-04-26T23:21:13.038Z,3.97
2023-04-26T23:24:21.806Z,3.20
2023-04-26T23:27:26.072Z,3.73
2023-04-26T23:30:34.165Z,3.77
2023-04-26T23:33:39.822Z,4.03
2023-04-26T23:37:07.150Z,3.50
2023-04-26T23:40:15.887Z,3.80
2023-04-26T23:43:21.996Z,3.40
2023-04-26T23:46:26.812Z,3.23
2023-04-26T23:49:32.212Z,3.30
2023-04-26T23:52:47.412Z,3.40
2023-04-26T23:55:53.990Z,3.47
2023-04-26T23:59:01.248Z,3.80
